sensor_id;sensor_type;location;lat;lon;timestamp;P1;durP1;ratioP1;P2;durP2;ratioP2
50367;SDS011;36281;34.132;-118.018;2023-09-30T00:00:35;12.20;;;8.02;;
50367;SDS011;36281;34.132;-118.018;2023-09-30T00:03:04;13.77;;;7.28;;
50367;SDS011;36281;34.132;-118.018;2023-09-30T00:05:33;10.95;;;7.20;;
50367;SDS011;36281;34.132;-118.018;2023-09-30T00:08:02;11.27;;;7.57;;
50367;SDS011;36281;34.132;-118.018;2023-09-30T00:10:32;14.45;;;7.70;;
50367;SDS011;36281;34.132;-118.018;2023-09-30T00:13:01;13.93;;;7.00;;
50367;SDS011;36281;34.132;-118.018;2023-09-30T00:15:32;11.15;;;7.15;;
50367;SDS011;36281;34.132;-118.018;2023-09-30T00:18:01;12.32;;;7.15;;
50367;SDS011;36281;34.132;-118.018;2023-09-30T00:20:30;13.85;;;7.90;;
50367;SDS011;36281;34.132;-118.018;2023-09-30T00:22:59;9.90;;;7.75;;
50367;SDS011;36281;34.132;-118.018;2023-09-30T00:25:28;11.30;;;7.35;;
50367;SDS011;36281;34.132;-118.018;2023-09-30T00:27:58;11.38;;;7.03;;
50367;SDS011;36281;34.132;-118.018;2023-09-30T00:30:27;11.63;;;7.40;;
50367;SDS011;36281;34.132;-118.018;2023-09-30T00:32:58;10.75;;;7.20;;
50367;SDS011;36281;34.132;-118.018;2023-09-30T00:35:28;11.10;;;6.85;;
50367;SDS011;36281;34.132;-118.018;2023-09-30T00:37:59;10.02;;;7.38;;
50367;SDS011;36281;34.132;-118.018;2023-09-30T00:40:28;8.15;;;7.10;;
50367;SDS011;36281;34.132;-118.018;2023-09-30T00:42:58;10.00;;;7.18;;
50367;SDS011;36281;34.132;-118.018;2023-09-30T00:45:27;12.35;;;7.22;;
50367;SDS011;36281;34.132;-118.018;2023-09-30T00:47:58;15.18;;;7.22;;
50367;SDS011;36281;34.132;-118.018;2023-09-30T00:50:27;11.60;;;7.47;;
50367;SDS011;36281;34.132;-118.018;2023-09-30T00:52:57;12.48;;;7.68;;
50367;SDS011;36281;34.132;-118.018;2023-09-30T00:55:26;14.65;;;7.35;;
50367;SDS011;36281;34.132;-118.018;2023-09-30T00:57:55;15.40;;;7.00;;
50367;SDS011;36281;34.132;-118.018;2023-09-30T01:00:24;13.00;;;7.22;;
50367;SDS011;36281;34.132;-118.018;2023-09-30T01:02:53;14.88;;;7.63;;
50367;SDS011;36281;34.132;-118.018;2023-09-30T01:05:26;12.02;;;6.95;;
50367;SDS011;36281;34.132;-118.018;2023-09-30T01:07:55;11.23;;;7.10;;
50367;SDS011;36281;34.132;-118.018;2023-09-30T01:10:24;14.00;;;7.18;;
50367;SDS011;36281;34.132;-118.018;2023-09-30T01:12:53;14.43;;;7.35;;
50367;SDS011;36281;34.132;-118.018;2023-09-30T01:15:22;12.85;;;7.00;;
50367;SDS011;36281;34.132;-118.018;2023-09-30T01:17:51;14.85;;;7.57;;
50367;SDS011;36281;34.132;-118.018;2023-09-30T01:20:20;12.32;;;6.93;;
50367;SDS011;36281;34.132;-118.018;2023-09-30T01:22:52;13.00;;;7.07;;
50367;SDS011;36281;34.132;-118.018;2023-09-30T01:25:22;11.10;;;7.13;;
50367;SDS011;36281;34.132;-118.018;2023-09-30T01:27:52;15.65;;;7.13;;
50367;SDS011;36281;34.132;-118.018;2023-09-30T01:30:21;10.55;;;6.53;;
50367;SDS011;36281;34.132;-118.018;2023-09-30T01:32:51;12.60;;;7.10;;
50367;SDS011;36281;34.132;-118.018;2023-09-30T01:35:21;11.60;;;6.65;;
50367;SDS011;36281;34.132;-118.018;2023-09-30T01:37:50;9.70;;;6.10;;
50367;SDS011;36281;34.132;-118.018;2023-09-30T01:40:20;15.43;;;6.78;;
50367;SDS011;36281;34.132;-118.018;2023-09-30T01:42:51;10.13;;;6.65;;
50367;SDS011;36281;34.132;-118.018;2023-09-30T01:45:20;12.55;;;7.25;;
50367;SDS011;36281;34.132;-118.018;2023-09-30T01:47:49;14.02;;;7.22;;
50367;SDS011;36281;34.132;-118.018;2023-09-30T01:50:18;12.95;;;7.18;;
50367;SDS011;36281;34.132;-118.018;2023-09-30T01:52:47;13.45;;;6.90;;
50367;SDS011;36281;34.132;-118.018;2023-09-30T01:55:18;13.90;;;6.82;;
50367;SDS011;36281;34.132;-118.018;2023-09-30T01:57:47;12.02;;;6.93;;
50367;SDS011;36281;34.132;-118.018;2023-09-30T02:00:16;13.90;;;6.50;;
50367;SDS011;36281;34.132;-118.018;2023-09-30T02:02:45;13.75;;;6.80;;
50367;SDS011;36281;34.132;-118.018;2023-09-30T02:05:14;11.30;;;6.70;;
50367;SDS011;36281;34.132;-118.018;2023-09-30T02:07:43;10.05;;;6.65;;
50367;SDS011;36281;34.132;-118.018;2023-09-30T02:10:12;14.88;;;7.20;;
50367;SDS011;36281;34.132;-118.018;2023-09-30T02:12:43;17.13;;;7.82;;
50367;SDS011;36281;34.132;-118.018;2023-09-30T02:15:12;13.63;;;7.10;;
50367;SDS011;36281;34.132;-118.018;2023-09-30T02:17:42;12.77;;;6.80;;
50367;SDS011;36281;34.132;-118.018;2023-09-30T02:20:13;12.85;;;7.55;;
50367;SDS011;36281;34.132;-118.018;2023-09-30T02:22:46;15.85;;;7.22;;
50367;SDS011;36281;34.132;-118.018;2023-09-30T02:25:16;10.98;;;6.10;;
50367;SDS011;36281;34.132;-118.018;2023-09-30T02:27:49;14.40;;;7.03;;
50367;SDS011;36281;34.132;-118.018;2023-09-30T02:30:18;11.27;;;7.00;;
50367;SDS011;36281;34.132;-118.018;2023-09-30T02:32:48;14.63;;;6.68;;
50367;SDS011;36281;34.132;-118.018;2023-09-30T02:35:17;10.23;;;6.93;;
50367;SDS011;36281;34.132;-118.018;2023-09-30T02:37:48;10.55;;;6.18;;
50367;SDS011;36281;34.132;-118.018;2023-09-30T02:40:19;12.20;;;6.55;;
50367;SDS011;36281;34.132;-118.018;2023-09-30T02:42:54;10.77;;;6.45;;
50367;SDS011;36281;34.132;-118.018;2023-09-30T02:45:23;12.93;;;6.43;;
50367;SDS011;36281;34.132;-118.018;2023-09-30T02:47:52;9.70;;;6.32;;
50367;SDS011;36281;34.132;-118.018;2023-09-30T02:50:21;13.02;;;6.65;;
50367;SDS011;36281;34.132;-118.018;2023-09-30T02:52:50;12.80;;;6.55;;
50367;SDS011;36281;34.132;-118.018;2023-09-30T02:55:19;13.95;;;6.80;;
50367;SDS011;36281;34.132;-118.018;2023-09-30T02:57:48;13.82;;;7.07;;
50367;SDS011;36281;34.132;-118.018;2023-09-30T03:00:19;13.13;;;6.60;;
50367;SDS011;36281;34.132;-118.018;2023-09-30T03:02:53;9.07;;;6.35;;
50367;SDS011;36281;34.132;-118.018;2023-09-30T03:05:23;10.60;;;6.25;;
50367;SDS011;36281;34.132;-118.018;2023-09-30T03:07:52;13.70;;;6.45;;
50367;SDS011;36281;34.132;-118.018;2023-09-30T03:10:22;13.10;;;5.85;;
50367;SDS011;36281;34.132;-118.018;2023-09-30T03:12:51;13.75;;;6.85;;
50367;SDS011;36281;34.132;-118.018;2023-09-30T03:15:22;11.80;;;6.28;;
50367;SDS011;36281;34.132;-118.018;2023-09-30T03:17:51;11.07;;;6.03;;
50367;SDS011;36281;34.132;-118.018;2023-09-30T03:20:20;10.75;;;6.05;;
50367;SDS011;36281;34.132;-118.018;2023-09-30T03:22:52;10.25;;;6.00;;
50367;SDS011;36281;34.132;-118.018;2023-09-30T03:25:21;13.20;;;5.95;;
50367;SDS011;36281;34.132;-118.018;2023-09-30T03:27:50;9.95;;;6.40;;
50367;SDS011;36281;34.132;-118.018;2023-09-30T03:30:20;12.95;;;6.03;;
50367;SDS011;36281;34.132;-118.018;2023-09-30T03:32:50;11.00;;;6.05;;
50367;SDS011;36281;34.132;-118.018;2023-09-30T03:35:20;11.02;;;6.63;;
50367;SDS011;36281;34.132;-118.018;2023-09-30T03:37:49;10.55;;;6.43;;
50367;SDS011;36281;34.132;-118.018;2023-09-30T03:40:18;9.90;;;5.95;;
50367;SDS011;36281;34.132;-118.018;2023-09-30T03:42:47;10.95;;;5.80;;
50367;SDS011;36281;34.132;-118.018;2023-09-30T03:45:19;10.90;;;6.35;;
50367;SDS011;36281;34.132;-118.018;2023-09-30T03:47:50;10.82;;;5.88;;
50367;SDS011;36281;34.132;-118.018;2023-09-30T03:50:19;12.55;;;6.25;;
50367;SDS011;36281;34.132;-118.018;2023-09-30T03:52:51;11.48;;;5.85;;
50367;SDS011;36281;34.132;-118.018;2023-09-30T03:55:28;13.07;;;6.57;;
50367;SDS011;36281;34.132;-118.018;2023-09-30T03:57:58;13.45;;;6.47;;
50367;SDS011;36281;34.132;-118.018;2023-09-30T04:00:29;9.07;;;6.20;;
50367;SDS011;36281;34.132;-118.018;2023-09-30T04:02:58;11.73;;;5.93;;
50367;SDS011;36281;34.132;-118.018;2023-09-30T04:05:28;10.77;;;6.00;;
50367;SDS011;36281;34.132;-118.018;2023-09-30T04:07:59;11.73;;;6.10;;
50367;SDS011;36281;34.132;-118.018;2023-09-30T04:10:28;10.23;;;6.10;;
50367;SDS011;36281;34.132;-118.018;2023-09-30T04:12:57;12.00;;;6.15;;
50367;SDS011;36281;34.132;-118.018;2023-09-30T04:15:26;11.02;;;6.68;;
50367;SDS011;36281;34.132;-118.018;2023-09-30T04:17:58;13.43;;;6.32;;
50367;SDS011;36281;34.132;-118.018;2023-09-30T04:20:28;10.23;;;5.90;;
50367;SDS011;36281;34.132;-118.018;2023-09-30T04:22:57;13.45;;;6.50;;
50367;SDS011;36281;34.132;-118.018;2023-09-30T04:25:26;9.85;;;5.38;;
50367;SDS011;36281;34.132;-118.018;2023-09-30T04:27:55;10.73;;;6.28;;
50367;SDS011;36281;34.132;-118.018;2023-09-30T04:30:25;10.50;;;5.63;;
50367;SDS011;36281;34.132;-118.018;2023-09-30T04:32:56;9.93;;;5.90;;
50367;SDS011;36281;34.132;-118.018;2023-09-30T04:35:26;11.55;;;6.07;;
50367;SDS011;36281;34.132;-118.018;2023-09-30T04:37:58;11.38;;;6.53;;
50367;SDS011;36281;34.132;-118.018;2023-09-30T04:40:29;10.27;;;5.78;;
50367;SDS011;36281;34.132;-118.018;2023-09-30T04:42:58;13.07;;;6.13;;
50367;SDS011;36281;34.132;-118.018;2023-09-30T04:45:27;13.98;;;6.63;;
50367;SDS011;36281;34.132;-118.018;2023-09-30T04:47:58;10.95;;;6.20;;
50367;SDS011;36281;34.132;-118.018;2023-09-30T04:50:28;10.48;;;6.18;;
50367;SDS011;36281;34.132;-118.018;2023-09-30T04:52:58;12.30;;;5.72;;
50367;SDS011;36281;34.132;-118.018;2023-09-30T04:55:27;10.88;;;6.32;;
50367;SDS011;36281;34.132;-118.018;2023-09-30T04:57:56;11.07;;;6.00;;
50367;SDS011;36281;34.132;-118.018;2023-09-30T05:00:25;13.25;;;7.05;;
50367;SDS011;36281;34.132;-118.018;2023-09-30T05:02:55;13.00;;;6.82;;
50367;SDS011;36281;34.132;-118.018;2023-09-30T05:05:27;10.82;;;6.38;;
50367;SDS011;36281;34.132;-118.018;2023-09-30T05:07:56;10.10;;;5.97;;
50367;SDS011;36281;34.132;-118.018;2023-09-30T05:10:25;11.93;;;6.55;;
50367;SDS011;36281;34.132;-118.018;2023-09-30T05:12:55;8.10;;;5.80;;
50367;SDS011;36281;34.132;-118.018;2023-09-30T05:15:25;10.88;;;6.50;;
50367;SDS011;36281;34.132;-118.018;2023-09-30T05:17:58;11.80;;;6.10;;
50367;SDS011;36281;34.132;-118.018;2023-09-30T05:20:28;10.13;;;6.15;;
50367;SDS011;36281;34.132;-118.018;2023-09-30T05:22:57;11.15;;;5.90;;
50367;SDS011;36281;34.132;-118.018;2023-09-30T05:25:26;10.95;;;6.40;;
50367;SDS011;36281;34.132;-118.018;2023-09-30T05:27:55;12.32;;;6.55;;
50367;SDS011;36281;34.132;-118.018;2023-09-30T05:30:24;11.73;;;6.40;;
50367;SDS011;36281;34.132;-118.018;2023-09-30T05:32:53;12.40;;;6.57;;
50367;SDS011;36281;34.132;-118.018;2023-09-30T05:35:24;12.93;;;6.20;;
50367;SDS011;36281;34.132;-118.018;2023-09-30T05:37:54;13.60;;;6.22;;
50367;SDS011;36281;34.132;-118.018;2023-09-30T05:40:23;14.20;;;7.03;;
50367;SDS011;36281;34.132;-118.018;2023-09-30T05:42:58;10.93;;;6.28;;
50367;SDS011;36281;34.132;-118.018;2023-09-30T05:45:28;10.80;;;6.88;;
50367;SDS011;36281;34.132;-118.018;2023-09-30T05:48:02;14.93;;;6.70;;
50367;SDS011;36281;34.132;-118.018;2023-09-30T05:50:36;14.02;;;7.28;;
50367;SDS011;36281;34.132;-118.018;2023-09-30T05:53:06;13.70;;;6.95;;
50367;SDS011;36281;34.132;-118.018;2023-09-30T05:55:35;13.90;;;7.45;;
50367;SDS011;36281;34.132;-118.018;2023-09-30T05:58:04;13.63;;;6.88;;
50367;SDS011;36281;34.132;-118.018;2023-09-30T06:00:33;14.95;;;7.22;;
50367;SDS011;36281;34.132;-118.018;2023-09-30T06:03:03;13.63;;;7.63;;
50367;SDS011;36281;34.132;-118.018;2023-09-30T06:05:33;14.57;;;7.53;;
50367;SDS011;36281;34.132;-118.018;2023-09-30T06:08:08;12.55;;;7.05;;
50367;SDS011;36281;34.132;-118.018;2023-09-30T06:10:43;16.95;;;7.00;;
50367;SDS011;36281;34.132;-118.018;2023-09-30T06:13:13;11.90;;;7.00;;
50367;SDS011;36281;34.132;-118.018;2023-09-30T06:15:43;12.88;;;6.80;;
50367;SDS011;36281;34.132;-118.018;2023-09-30T06:18:14;13.68;;;6.85;;
50367;SDS011;36281;34.132;-118.018;2023-09-30T06:20:45;13.75;;;7.03;;
50367;SDS011;36281;34.132;-118.018;2023-09-30T06:23:14;12.13;;;6.93;;
50367;SDS011;36281;34.132;-118.018;2023-09-30T06:25:43;14.38;;;6.82;;
50367;SDS011;36281;34.132;-118.018;2023-09-30T06:28:12;11.73;;;6.30;;
50367;SDS011;36281;34.132;-118.018;2023-09-30T06:30:41;11.68;;;7.20;;
50367;SDS011;36281;34.132;-118.018;2023-09-30T06:33:13;13.10;;;6.97;;
50367;SDS011;36281;34.132;-118.018;2023-09-30T06:35:43;14.05;;;6.85;;
50367;SDS011;36281;34.132;-118.018;2023-09-30T06:38:18;15.00;;;7.47;;
50367;SDS011;36281;34.132;-118.018;2023-09-30T06:40:47;14.52;;;7.18;;
50367;SDS011;36281;34.132;-118.018;2023-09-30T06:43:16;13.93;;;7.40;;
50367;SDS011;36281;34.132;-118.018;2023-09-30T06:45:45;15.48;;;8.20;;
50367;SDS011;36281;34.132;-118.018;2023-09-30T06:48:14;17.60;;;7.93;;
50367;SDS011;36281;34.132;-118.018;2023-09-30T06:50:45;11.85;;;7.35;;
50367;SDS011;36281;34.132;-118.018;2023-09-30T06:53:16;15.95;;;7.95;;
50367;SDS011;36281;34.132;-118.018;2023-09-30T06:55:46;16.25;;;8.40;;
50367;SDS011;36281;34.132;-118.018;2023-09-30T06:58:15;18.55;;;8.90;;
50367;SDS011;36281;34.132;-118.018;2023-09-30T07:00:48;14.02;;;8.55;;
50367;SDS011;36281;34.132;-118.018;2023-09-30T07:03:19;17.33;;;8.82;;
50367;SDS011;36281;34.132;-118.018;2023-09-30T07:05:54;14.05;;;8.55;;
50367;SDS011;36281;34.132;-118.018;2023-09-30T07:08:24;15.60;;;8.60;;
50367;SDS011;36281;34.132;-118.018;2023-09-30T07:10:53;15.38;;;9.18;;
50367;SDS011;36281;34.132;-118.018;2023-09-30T07:13:24;13.23;;;8.80;;
50367;SDS011;36281;34.132;-118.018;2023-09-30T07:15:53;16.40;;;9.60;;
50367;SDS011;36281;34.132;-118.018;2023-09-30T07:18:22;17.75;;;9.27;;
50367;SDS011;36281;34.132;-118.018;2023-09-30T07:20:54;17.40;;;8.95;;
50367;SDS011;36281;34.132;-118.018;2023-09-30T07:23:23;18.58;;;9.27;;
50367;SDS011;36281;34.132;-118.018;2023-09-30T07:25:52;21.33;;;9.63;;
50367;SDS011;36281;34.132;-118.018;2023-09-30T07:28:21;16.65;;;8.95;;
50367;SDS011;36281;34.132;-118.018;2023-09-30T07:30:49;22.05;;;9.65;;
50367;SDS011;36281;34.132;-118.018;2023-09-30T07:33:19;15.82;;;9.95;;
50367;SDS011;36281;34.132;-118.018;2023-09-30T07:35:48;18.98;;;9.98;;
50367;SDS011;36281;34.132;-118.018;2023-09-30T07:38:18;18.25;;;9.43;;
50367;SDS011;36281;34.132;-118.018;2023-09-30T07:40:47;16.25;;;9.80;;
50367;SDS011;36281;34.132;-118.018;2023-09-30T07:43:16;17.15;;;9.73;;
50367;SDS011;36281;34.132;-118.018;2023-09-30T07:45:48;17.52;;;10.00;;
50367;SDS011;36281;34.132;-118.018;2023-09-30T07:48:17;19.02;;;9.88;;
50367;SDS011;36281;34.132;-118.018;2023-09-30T07:50:46;17.38;;;9.65;;
50367;SDS011;36281;34.132;-118.018;2023-09-30T07:53:15;18.95;;;10.27;;
50367;SDS011;36281;34.132;-118.018;2023-09-30T07:55:45;15.15;;;9.93;;
50367;SDS011;36281;34.132;-118.018;2023-09-30T07:58:14;20.25;;;10.32;;
50367;SDS011;36281;34.132;-118.018;2023-09-30T08:00:44;20.00;;;10.15;;
50367;SDS011;36281;34.132;-118.018;2023-09-30T08:03:13;17.30;;;10.48;;
50367;SDS011;36281;34.132;-118.018;2023-09-30T08:05:42;17.02;;;9.90;;
50367;SDS011;36281;34.132;-118.018;2023-09-30T08:08:11;15.98;;;9.65;;
50367;SDS011;36281;34.132;-118.018;2023-09-30T08:10:40;20.05;;;10.43;;
50367;SDS011;36281;34.132;-118.018;2023-09-30T08:13:12;15.80;;;9.18;;
50367;SDS011;36281;34.132;-118.018;2023-09-30T08:15:41;13.40;;;8.82;;
50367;SDS011;36281;34.132;-118.018;2023-09-30T08:18:10;18.25;;;10.05;;
50367;SDS011;36281;34.132;-118.018;2023-09-30T08:20:39;21.23;;;10.13;;
50367;SDS011;36281;34.132;-118.018;2023-09-30T08:23:08;17.15;;;9.32;;
50367;SDS011;36281;34.132;-118.018;2023-09-30T08:25:37;14.40;;;9.05;;
50367;SDS011;36281;34.132;-118.018;2023-09-30T08:28:05;19.50;;;9.93;;
50367;SDS011;36281;34.132;-118.018;2023-09-30T08:30:38;16.30;;;10.13;;
50367;SDS011;36281;34.132;-118.018;2023-09-30T08:33:07;16.88;;;9.63;;
50367;SDS011;36281;34.132;-118.018;2023-09-30T08:35:36;15.68;;;9.45;;
50367;SDS011;36281;34.132;-118.018;2023-09-30T08:38:05;15.50;;;8.95;;
50367;SDS011;36281;34.132;-118.018;2023-09-30T08:40:34;14.10;;;8.68;;
50367;SDS011;36281;34.132;-118.018;2023-09-30T08:43:03;13.85;;;8.85;;
50367;SDS011;36281;34.132;-118.018;2023-09-30T08:45:33;17.10;;;9.05;;
50367;SDS011;36281;34.132;-118.018;2023-09-30T08:48:08;16.58;;;8.90;;
50367;SDS011;36281;34.132;-118.018;2023-09-30T08:50:37;15.10;;;8.70;;
50367;SDS011;36281;34.132;-118.018;2023-09-30T08:53:10;16.63;;;8.20;;
50367;SDS011;36281;34.132;-118.018;2023-09-30T08:55:43;15.07;;;7.95;;
50367;SDS011;36281;34.132;-118.018;2023-09-30T08:58:13;15.48;;;8.82;;
50367;SDS011;36281;34.132;-118.018;2023-09-30T09:00:45;13.30;;;8.10;;
50367;SDS011;36281;34.132;-118.018;2023-09-30T09:03:15;11.75;;;7.50;;
50367;SDS011;36281;34.132;-118.018;2023-09-30T09:05:46;15.10;;;7.82;;
50367;SDS011;36281;34.132;-118.018;2023-09-30T09:10:55;14.88;;;7.78;;
50367;SDS011;36281;34.132;-118.018;2023-09-30T09:13:25;16.83;;;7.88;;
50367;SDS011;36281;34.132;-118.018;2023-09-30T09:16:09;10.40;;;6.60;;
50367;SDS011;36281;34.132;-118.018;2023-09-30T09:18:38;13.15;;;7.28;;
50367;SDS011;36281;34.132;-118.018;2023-09-30T09:21:08;13.32;;;7.15;;
50367;SDS011;36281;34.132;-118.018;2023-09-30T09:23:42;14.40;;;8.07;;
50367;SDS011;36281;34.132;-118.018;2023-09-30T09:26:11;14.20;;;7.30;;
50367;SDS011;36281;34.132;-118.018;2023-09-30T09:28:44;14.55;;;6.82;;
50367;SDS011;36281;34.132;-118.018;2023-09-30T09:31:23;15.43;;;7.25;;
50367;SDS011;36281;34.132;-118.018;2023-09-30T09:33:54;11.20;;;6.45;;
50367;SDS011;36281;34.132;-118.018;2023-09-30T09:36:37;12.82;;;6.38;;
50367;SDS011;36281;34.132;-118.018;2023-09-30T09:39:07;10.40;;;6.22;;
50367;SDS011;36281;34.132;-118.018;2023-09-30T09:41:49;15.85;;;6.78;;
50367;SDS011;36281;34.132;-118.018;2023-09-30T09:44:19;13.18;;;6.53;;
50367;SDS011;36281;34.132;-118.018;2023-09-30T09:46:54;12.02;;;5.53;;
50367;SDS011;36281;34.132;-118.018;2023-09-30T09:49:25;13.10;;;6.63;;
50367;SDS011;36281;34.132;-118.018;2023-09-30T09:51:56;11.23;;;5.93;;
50367;SDS011;36281;34.132;-118.018;2023-09-30T09:54:26;12.52;;;5.82;;
50367;SDS011;36281;34.132;-118.018;2023-09-30T09:56:57;12.48;;;5.95;;
50367;SDS011;36281;34.132;-118.018;2023-09-30T09:59:30;13.18;;;5.85;;
50367;SDS011;36281;34.132;-118.018;2023-09-30T10:02:01;10.90;;;5.47;;
50367;SDS011;36281;34.132;-118.018;2023-09-30T10:04:38;14.27;;;5.68;;
50367;SDS011;36281;34.132;-118.018;2023-09-30T10:07:07;11.35;;;6.07;;
50367;SDS011;36281;34.132;-118.018;2023-09-30T10:09:44;12.75;;;5.95;;
50367;SDS011;36281;34.132;-118.018;2023-09-30T10:12:18;8.38;;;5.80;;
50367;SDS011;36281;34.132;-118.018;2023-09-30T10:14:49;10.57;;;5.43;;
50367;SDS011;36281;34.132;-118.018;2023-09-30T10:17:21;10.02;;;5.40;;
50367;SDS011;36281;34.132;-118.018;2023-09-30T10:20:43;9.02;;;5.10;;
50367;SDS011;36281;34.132;-118.018;2023-09-30T10:23:21;9.95;;;5.38;;
50367;SDS011;36281;34.132;-118.018;2023-09-30T10:25:55;11.13;;;5.88;;
50367;SDS011;36281;34.132;-118.018;2023-09-30T10:28:45;12.60;;;5.70;;
50367;SDS011;36281;34.132;-118.018;2023-09-30T10:31:18;11.18;;;6.00;;
50367;SDS011;36281;34.132;-118.018;2023-09-30T10:36:50;12.98;;;6.32;;
50367;SDS011;36281;34.132;-118.018;2023-09-30T10:51:17;12.90;;;5.70;;
50367;SDS011;36281;34.132;-118.018;2023-09-30T10:53:49;11.52;;;6.18;;
50367;SDS011;36281;34.132;-118.018;2023-09-30T10:56:25;9.40;;;6.35;;
50367;SDS011;36281;34.132;-118.018;2023-09-30T10:59:01;10.75;;;6.10;;
50367;SDS011;36281;34.132;-118.018;2023-09-30T11:01:32;11.63;;;6.00;;
50367;SDS011;36281;34.132;-118.018;2023-09-30T11:04:05;14.23;;;6.30;;
50367;SDS011;36281;34.132;-118.018;2023-09-30T11:06:39;12.23;;;6.07;;
50367;SDS011;36281;34.132;-118.018;2023-09-30T11:09:08;8.88;;;5.85;;
50367;SDS011;36281;34.132;-118.018;2023-09-30T11:11:41;11.05;;;6.03;;
50367;SDS011;36281;34.132;-118.018;2023-09-30T11:14:20;11.05;;;5.70;;
50367;SDS011;36281;34.132;-118.018;2023-09-30T11:16:55;10.77;;;5.57;;
50367;SDS011;36281;34.132;-118.018;2023-09-30T11:19:25;10.90;;;5.85;;
50367;SDS011;36281;34.132;-118.018;2023-09-30T11:21:56;9.68;;;5.78;;
50367;SDS011;36281;34.132;-118.018;2023-09-30T11:24:28;13.18;;;5.97;;
50367;SDS011;36281;34.132;-118.018;2023-09-30T11:26:58;10.88;;;5.68;;
50367;SDS011;36281;34.132;-118.018;2023-09-30T11:29:27;11.18;;;6.10;;
50367;SDS011;36281;34.132;-118.018;2023-09-30T11:31:56;11.23;;;5.35;;
50367;SDS011;36281;34.132;-118.018;2023-09-30T11:34:31;10.25;;;5.30;;
50367;SDS011;36281;34.132;-118.018;2023-09-30T11:37:04;9.70;;;5.30;;
50367;SDS011;36281;34.132;-118.018;2023-09-30T11:39:38;10.75;;;5.60;;
50367;SDS011;36281;34.132;-118.018;2023-09-30T11:42:14;9.60;;;5.05;;
50367;SDS011;36281;34.132;-118.018;2023-09-30T11:44:45;10.32;;;5.40;;
50367;SDS011;36281;34.132;-118.018;2023-09-30T11:47:15;9.52;;;5.47;;
50367;SDS011;36281;34.132;-118.018;2023-09-30T11:49:44;11.48;;;5.32;;
50367;SDS011;36281;34.132;-118.018;2023-09-30T11:52:27;12.98;;;5.30;;
50367;SDS011;36281;34.132;-118.018;2023-09-30T11:54:56;7.85;;;5.32;;
50367;SDS011;36281;34.132;-118.018;2023-09-30T11:57:25;11.77;;;5.45;;
50367;SDS011;36281;34.132;-118.018;2023-09-30T12:00:04;9.38;;;5.20;;
50367;SDS011;36281;34.132;-118.018;2023-09-30T12:02:41;12.13;;;5.10;;
50367;SDS011;36281;34.132;-118.018;2023-09-30T12:05:10;12.38;;;5.20;;
50367;SDS011;36281;34.132;-118.018;2023-09-30T12:07:41;9.93;;;5.20;;
50367;SDS011;36281;34.132;-118.018;2023-09-30T12:10:09;10.88;;;5.80;;
50367;SDS011;36281;34.132;-118.018;2023-09-30T12:12:41;12.05;;;5.07;;
50367;SDS011;36281;34.132;-118.018;2023-09-30T12:15:12;11.52;;;5.15;;
50367;SDS011;36281;34.132;-118.018;2023-09-30T12:17:44;11.75;;;5.50;;
50367;SDS011;36281;34.132;-118.018;2023-09-30T12:20:13;13.60;;;6.70;;
50367;SDS011;36281;34.132;-118.018;2023-09-30T12:22:44;11.02;;;5.55;;
50367;SDS011;36281;34.132;-118.018;2023-09-30T12:25:13;10.82;;;6.00;;
50367;SDS011;36281;34.132;-118.018;2023-09-30T12:27:42;11.25;;;5.63;;
50367;SDS011;36281;34.132;-118.018;2023-09-30T12:30:15;12.20;;;5.63;;
50367;SDS011;36281;34.132;-118.018;2023-09-30T12:32:47;12.70;;;5.45;;
50367;SDS011;36281;34.132;-118.018;2023-09-30T12:35:16;9.63;;;5.32;;
50367;SDS011;36281;34.132;-118.018;2023-09-30T12:37:45;8.88;;;5.25;;
50367;SDS011;36281;34.132;-118.018;2023-09-30T12:40:14;13.45;;;6.03;;
50367;SDS011;36281;34.132;-118.018;2023-09-30T12:42:44;8.73;;;5.93;;
50367;SDS011;36281;34.132;-118.018;2023-09-30T12:45:16;13.68;;;5.60;;
50367;SDS011;36281;34.132;-118.018;2023-09-30T12:47:45;12.95;;;5.18;;
50367;SDS011;36281;34.132;-118.018;2023-09-30T12:50:15;11.30;;;5.65;;
50367;SDS011;36281;34.132;-118.018;2023-09-30T12:52:44;12.02;;;5.63;;
50367;SDS011;36281;34.132;-118.018;2023-09-30T12:55:13;12.45;;;5.45;;
50367;SDS011;36281;34.132;-118.018;2023-09-30T12:57:42;9.52;;;5.50;;
50367;SDS011;36281;34.132;-118.018;2023-09-30T13:00:12;12.07;;;5.38;;
50367;SDS011;36281;34.132;-118.018;2023-09-30T13:02:45;9.98;;;5.32;;
50367;SDS011;36281;34.132;-118.018;2023-09-30T13:05:14;13.07;;;5.45;;
50367;SDS011;36281;34.132;-118.018;2023-09-30T13:07:44;8.55;;;5.07;;
50367;SDS011;36281;34.132;-118.018;2023-09-30T13:10:14;10.63;;;5.35;;
50367;SDS011;36281;34.132;-118.018;2023-09-30T13:12:43;9.07;;;4.72;;
50367;SDS011;36281;34.132;-118.018;2023-09-30T13:15:12;10.65;;;5.07;;
50367;SDS011;36281;34.132;-118.018;2023-09-30T13:17:42;12.10;;;5.43;;
50367;SDS011;36281;34.132;-118.018;2023-09-30T13:20:13;9.40;;;4.78;;
50367;SDS011;36281;34.132;-118.018;2023-09-30T13:22:42;12.18;;;4.85;;
50367;SDS011;36281;34.132;-118.018;2023-09-30T13:25:11;8.32;;;4.85;;
50367;SDS011;36281;34.132;-118.018;2023-09-30T13:27:39;10.27;;;5.00;;
50367;SDS011;36281;34.132;-118.018;2023-09-30T13:30:09;11.00;;;4.60;;
50367;SDS011;36281;34.132;-118.018;2023-09-30T13:32:38;9.65;;;4.68;;
50367;SDS011;36281;34.132;-118.018;2023-09-30T13:35:07;12.55;;;4.93;;
50367;SDS011;36281;34.132;-118.018;2023-09-30T13:37:38;9.85;;;4.57;;
50367;SDS011;36281;34.132;-118.018;2023-09-30T13:40:08;8.35;;;4.72;;
50367;SDS011;36281;34.132;-118.018;2023-09-30T13:42:40;9.50;;;5.00;;
50367;SDS011;36281;34.132;-118.018;2023-09-30T13:45:10;10.52;;;5.28;;
50367;SDS011;36281;34.132;-118.018;2023-09-30T13:47:39;11.43;;;4.70;;
50367;SDS011;36281;34.132;-118.018;2023-09-30T13:50:09;9.82;;;4.90;;
50367;SDS011;36281;34.132;-118.018;2023-09-30T13:52:39;8.40;;;4.38;;
50367;SDS011;36281;34.132;-118.018;2023-09-30T13:55:09;8.40;;;4.68;;
50367;SDS011;36281;34.132;-118.018;2023-09-30T13:57:37;14.48;;;5.32;;
50367;SDS011;36281;34.132;-118.018;2023-09-30T14:00:08;8.85;;;5.10;;
50367;SDS011;36281;34.132;-118.018;2023-09-30T14:02:38;11.80;;;5.32;;
50367;SDS011;36281;34.132;-118.018;2023-09-30T14:05:08;11.27;;;5.10;;
50367;SDS011;36281;34.132;-118.018;2023-09-30T14:07:39;9.70;;;4.97;;
50367;SDS011;36281;34.132;-118.018;2023-09-30T14:10:08;9.13;;;4.75;;
50367;SDS011;36281;34.132;-118.018;2023-09-30T14:12:40;8.77;;;4.80;;
50367;SDS011;36281;34.132;-118.018;2023-09-30T14:15:10;9.85;;;5.18;;
50367;SDS011;36281;34.132;-118.018;2023-09-30T14:17:40;11.13;;;4.50;;
50367;SDS011;36281;34.132;-118.018;2023-09-30T14:20:10;12.55;;;4.85;;
50367;SDS011;36281;34.132;-118.018;2023-09-30T14:22:41;10.65;;;5.03;;
50367;SDS011;36281;34.132;-118.018;2023-09-30T14:25:11;8.93;;;4.50;;
50367;SDS011;36281;34.132;-118.018;2023-09-30T14:27:40;9.45;;;4.55;;
50367;SDS011;36281;34.132;-118.018;2023-09-30T14:30:10;9.75;;;4.35;;
50367;SDS011;36281;34.132;-118.018;2023-09-30T14:32:39;11.80;;;5.00;;
50367;SDS011;36281;34.132;-118.018;2023-09-30T14:35:09;6.70;;;4.30;;